createdAt,value
2022-08-19T00:00:33.575Z,19.10
2022-08-19T00:04:18.872Z,19.10
2022-08-19T00:08:01.811Z,19.00
2022-08-19T00:11:45.571Z,19.00
2022-08-19T00:15:28.577Z,18.90
2022-08-19T00:19:12.858Z,19.00
2022-08-19T00:22:56.497Z,19.00
2022-08-19T00:26:39.801Z,19.00
2022-08-19T00:30:22.164Z,19.00
2022-08-19T00:34:05.215Z,19.00
2022-08-19T00:37:50.243Z,19.00
2022-08-19T00:41:33.239Z,19.10
2022-08-19T00:45:19.167Z,19.00
2022-08-19T00:49:04.205Z,19.00
2022-08-19T00:52:51.875Z,18.90
2022-08-19T00:56:35.639Z,18.90
2022-08-19T01:00:20.857Z,18.90
2022-08-19T01:04:03.677Z,18.90
2022-08-19T01:07:47.062Z,18.90
2022-08-19T01:11:33.393Z,18.90
2022-08-19T01:15:24.785Z,18.80
2022-08-19T01:19:14.497Z,18.80
2022-08-19T01:23:00.468Z,18.80
2022-08-19T01:26:47.711Z,18.70
2022-08-19T01:30:35.104Z,18.70
2022-08-19T01:34:19.973Z,18.80
2022-08-19T01:38:08.326Z,18.70
2022-08-19T01:41:52.286Z,18.70
2022-08-19T01:45:35.999Z,18.80
2022-08-19T01:49:21.754Z,18.70
2022-08-19T01:53:08.744Z,18.70
2022-08-19T01:56:53.310Z,18.70
2022-08-19T02:00:37.055Z,18.70
2022-08-19T02:04:19.628Z,18.60
2022-08-19T02:08:02.301Z,18.50
2022-08-19T02:11:46.492Z,18.60
2022-08-19T02:15:29.126Z,18.50
2022-08-19T02:19:13.882Z,18.50
2022-08-19T02:22:56.390Z,18.50
2022-08-19T02:26:39.219Z,18.50
2022-08-19T02:30:25.503Z,18.50
2022-08-19T02:34:08.312Z,18.40
2022-08-19T02:38:08.231Z,18.40
2022-08-19T02:41:51.620Z,18.30
2022-08-19T02:45:35.757Z,18.30
2022-08-19T02:49:22.817Z,18.20
2022-08-19T02:53:05.572Z,18.20
2022-08-19T02:56:48.384Z,18.20
2022-08-19T03:00:30.755Z,18.10
2022-08-19T03:04:21.210Z,18.10
2022-08-19T03:08:05.093Z,18.00
2022-08-19T03:11:48.555Z,18.00
2022-08-19T03:15:32.670Z,18.00
2022-08-19T03:19:18.984Z,18.00
2022-08-19T03:23:01.547Z,17.90
2022-08-19T03:26:47.138Z,17.90
2022-08-19T03:30:29.922Z,17.90
2022-08-19T03:34:13.576Z,17.90
2022-08-19T03:37:59.960Z,17.80
2022-08-19T03:41:46.451Z,17.80
2022-08-19T03:45:31.080Z,17.80
2022-08-19T03:49:14.004Z,17.80
2022-08-19T03:53:02.036Z,17.80
2022-08-19T03:56:47.215Z,17.80
2022-08-19T04:00:29.566Z,17.70
2022-08-19T04:04:12.515Z,17.70
2022-08-19T04:07:55.985Z,17.70
2022-08-19T04:11:44.253Z,17.70
2022-08-19T04:15:27.277Z,17.70
2022-08-19T04:19:09.960Z,17.60
2022-08-19T04:22:52.884Z,17.60
2022-08-19T04:26:38.080Z,17.60
2022-08-19T04:30:23.497Z,17.60
2022-08-19T04:34:09.058Z,17.60
2022-08-19T04:37:51.914Z,17.60
2022-08-19T04:41:52.692Z,17.70
2022-08-19T04:45:43.647Z,17.70
2022-08-19T04:49:27.263Z,17.70
2022-08-19T04:53:10.465Z,17.80
2022-08-19T04:56:54.404Z,17.80
2022-08-19T05:00:40.734Z,17.80
2022-08-19T05:04:23.616Z,17.80
2022-08-19T05:08:06.432Z,17.80
2022-08-19T05:11:50.656Z,17.80
2022-08-19T05:15:33.576Z,17.80
2022-08-19T05:19:37.032Z,17.80
2022-08-19T05:23:22.787Z,17.90
2022-08-19T05:27:06.668Z,17.90
2022-08-19T05:30:51.696Z,17.90
2022-08-19T05:34:36.409Z,17.90
2022-08-19T05:38:19.406Z,17.90
2022-08-19T05:42:06.996Z,17.90
2022-08-19T05:45:51.562Z,18.00
2022-08-19T05:49:37.033Z,18.00
2022-08-19T05:53:19.681Z,18.10
2022-08-19T05:57:03.172Z,18.00
2022-08-19T06:00:46.553Z,18.10
2022-08-19T06:04:31.138Z,18.20
2022-08-19T06:08:15.424Z,18.20
2022-08-19T06:12:01.002Z,18.30
2022-08-19T06:15:45.184Z,18.40
2022-08-19T06:19:30.768Z,18.30
2022-08-19T06:23:16.280Z,18.50
2022-08-19T06:27:02.203Z,18.50
2022-08-19T06:30:45.333Z,18.70
2022-08-19T06:34:29.464Z,18.70
2022-08-19T06:38:12.548Z,18.80
2022-08-19T06:41:58.642Z,18.90
2022-08-19T06:45:43.336Z,18.80
2022-08-19T06:49:31.917Z,18.90
2022-08-19T06:53:15.429Z,18.80
2022-08-19T06:56:58.398Z,19.00
2022-08-19T07:00:42.547Z,19.00
2022-08-19T07:04:27.351Z,19.00
2022-08-19T07:08:10.862Z,19.00
2022-08-19T07:11:55.040Z,19.10
2022-08-19T07:15:39.809Z,19.20
2022-08-19T07:19:27.079Z,19.00
2022-08-19T07:23:09.893Z,18.90
2022-08-19T07:26:57.705Z,19.00
2022-08-19T07:30:41.757Z,19.00
2022-08-19T07:34:28.865Z,19.10
2022-08-19T07:38:11.610Z,19.00
2022-08-19T07:41:55.427Z,19.00
2022-08-19T07:45:38.241Z,19.10
2022-08-19T07:49:21.854Z,19.30
2022-08-19T07:53:06.053Z,19.30
2022-08-19T07:56:48.988Z,19.30
2022-08-19T08:00:36.256Z,19.50
2022-08-19T08:04:37.206Z,19.70
2022-08-19T08:08:44.059Z,19.80
2022-08-19T08:12:34.926Z,20.00
2022-08-19T08:16:18.064Z,20.40
2022-08-19T08:20:01.506Z,20.70
2022-08-19T08:23:46.865Z,20.90
2022-08-19T08:27:30.460Z,21.00
2022-08-19T08:31:15.428Z,21.00
2022-08-19T08:34:58.072Z,20.90
2022-08-19T08:38:41.691Z,20.80
2022-08-19T08:42:33.006Z,20.90
2022-08-19T08:46:30.473Z,21.20
2022-08-19T08:50:20.690Z,21.50
2022-08-19T08:54:04.947Z,21.40
2022-08-19T08:57:55.963Z,21.50
2022-08-19T09:01:41.586Z,21.10
2022-08-19T09:05:27.642Z,21.00
2022-08-19T09:09:32.081Z,21.10
2022-08-19T09:13:24.692Z,21.00
2022-08-19T09:17:08.538Z,21.00
2022-08-19T09:20:51.442Z,21.00
2022-08-19T09:24:36.788Z,21.20
2022-08-19T09:28:22.457Z,20.90
2022-08-19T09:32:26.653Z,21.10
2022-08-19T09:36:12.510Z,21.40
2022-08-19T09:40:05.772Z,21.30
2022-08-19T09:43:52.896Z,21.30
2022-08-19T09:47:37.110Z,21.30
2022-08-19T09:51:23.499Z,21.50
2022-08-19T09:55:08.144Z,21.70
2022-08-19T09:58:52.229Z,21.80
2022-08-19T10:02:34.849Z,22.10
2022-08-19T10:06:17.805Z,22.00
2022-08-19T10:10:07.709Z,21.90
2022-08-19T10:13:51.683Z,22.30
2022-08-19T10:17:36.161Z,22.80
2022-08-19T10:21:21.558Z,23.10
2022-08-19T10:25:04.170Z,23.20
2022-08-19T10:28:47.278Z,23.10
2022-08-19T10:32:34.170Z,23.10
2022-08-19T10:36:20.711Z,22.90
2022-08-19T10:40:04.355Z,23.10
2022-08-19T10:43:49.005Z,23.30
2022-08-19T10:47:33.193Z,23.30
2022-08-19T10:51:33.977Z,23.10
2022-08-19T10:55:34.222Z,23.00
2022-08-19T10:59:19.029Z,23.10
2022-08-19T11:03:02.912Z,22.70
2022-08-19T11:06:48.354Z,22.70
2022-08-19T11:10:31.506Z,22.90
2022-08-19T11:14:16.939Z,23.30
2022-08-19T11:17:59.424Z,23.80
2022-08-19T11:25:21.165Z,24.00
2022-08-19T11:29:07.156Z,23.50
2022-08-19T11:32:50.505Z,23.30
2022-08-19T11:36:34.216Z,23.80
2022-08-19T11:40:17.233Z,24.00
2022-08-19T11:44:01.356Z,24.10
2022-08-19T11:47:45.006Z,23.90
2022-08-19T11:51:29.033Z,23.80
2022-08-19T11:55:12.640Z,24.30
2022-08-19T11:58:57.635Z,24.60
2022-08-19T12:02:41.500Z,25.10
2022-08-19T12:06:29.393Z,25.20
2022-08-19T12:10:12.659Z,24.90
2022-08-19T12:13:56.062Z,25.20
2022-08-19T12:17:39.067Z,25.00
2022-08-19T12:21:26.020Z,25.40
2022-08-19T12:25:09.477Z,25.70
2022-08-19T12:28:52.501Z,25.40
2022-08-19T12:32:37.907Z,25.50
2022-08-19T12:36:22.963Z,25.60
2022-08-19T12:40:10.603Z,25.10
2022-08-19T12:43:56.245Z,24.90
2022-08-19T12:47:40.772Z,24.70
2022-08-19T12:51:27.860Z,25.10
2022-08-19T12:55:11.622Z,25.30
2022-08-19T12:58:54.139Z,25.50
2022-08-19T13:02:38.951Z,25.70
2022-08-19T13:06:22.285Z,25.60
2022-08-19T13:10:07.983Z,25.50
2022-08-19T13:13:52.559Z,25.70
2022-08-19T13:17:36.386Z,25.70
2022-08-19T13:21:20.859Z,26.00
2022-08-19T13:25:08.421Z,25.40
2022-08-19T13:29:08.679Z,25.10
2022-08-19T13:33:08.471Z,25.40
2022-08-19T13:36:51.037Z,25.50
2022-08-19T13:40:43.944Z,25.50
2022-08-19T13:44:27.326Z,25.70
2022-08-19T13:48:10.459Z,25.90
2022-08-19T13:51:53.044Z,25.70
2022-08-19T13:55:37.051Z,25.50
2022-08-19T13:59:20.967Z,25.10
2022-08-19T14:03:09.034Z,25.10
2022-08-19T14:06:52.272Z,25.20
2022-08-19T14:10:35.186Z,25.50
2022-08-19T14:14:18.086Z,25.10
2022-08-19T14:18:05.135Z,25.00
2022-08-19T14:21:48.117Z,24.70
2022-08-19T14:25:32.198Z,24.60
2022-08-19T14:29:15.249Z,24.30
2022-08-19T14:32:59.516Z,24.40
2022-08-19T14:36:43.517Z,24.60
2022-08-19T14:40:28.712Z,24.60
2022-08-19T14:44:13.362Z,24.70
2022-08-19T14:47:55.965Z,25.00
2022-08-19T14:51:43.174Z,25.00
2022-08-19T14:55:26.025Z,25.20
2022-08-19T14:59:08.585Z,25.60
2022-08-19T15:02:51.879Z,25.80
2022-08-19T15:06:34.508Z,25.80
2022-08-19T15:10:18.990Z,26.00
2022-08-19T15:14:02.324Z,26.00
2022-08-19T15:17:46.626Z,25.80
2022-08-19T15:21:31.160Z,25.90
2022-08-19T15:25:16.196Z,26.20
2022-08-19T15:29:01.375Z,26.20
2022-08-19T15:32:48.509Z,26.30
2022-08-19T15:36:34.858Z,26.10
2022-08-19T15:40:18.440Z,25.90
2022-08-19T15:44:06.879Z,25.60
2022-08-19T15:47:49.758Z,25.20
2022-08-19T15:51:36.099Z,25.00
2022-08-19T15:55:33.479Z,25.00
2022-08-19T15:59:36.513Z,25.00
2022-08-19T16:03:48.792Z,24.70
2022-08-19T16:07:31.931Z,24.40
2022-08-19T16:11:19.888Z,24.30
2022-08-19T16:15:05.436Z,24.20
2022-08-19T16:18:48.361Z,24.20
2022-08-19T16:22:32.980Z,24.30
2022-08-19T16:26:16.808Z,24.40
2022-08-19T16:29:59.527Z,24.50
2022-08-19T16:33:44.269Z,24.40
2022-08-19T16:37:27.132Z,24.30
2022-08-19T16:41:09.591Z,24.10
2022-08-19T16:44:52.230Z,24.20
2022-08-19T16:48:34.866Z,24.20
2022-08-19T16:52:20.249Z,24.10
2022-08-19T16:56:03.116Z,24.10
2022-08-19T16:59:48.653Z,24.10
2022-08-19T17:03:36.601Z,24.30
2022-08-19T17:07:21.261Z,24.10
2022-08-19T17:11:17.763Z,24.20
2022-08-19T17:15:02.709Z,24.30
2022-08-19T17:18:45.671Z,24.30
2022-08-19T17:22:29.851Z,24.20
2022-08-19T17:26:16.747Z,24.10
2022-08-19T17:30:03.227Z,24.00
2022-08-19T17:33:48.653Z,23.90
2022-08-19T17:37:34.136Z,23.80
2022-08-19T17:41:16.962Z,23.80
2022-08-19T17:44:59.998Z,23.70
2022-08-19T17:48:42.850Z,23.60
2022-08-19T17:52:26.113Z,23.50
2022-08-19T17:56:10.706Z,23.50
2022-08-19T17:59:54.228Z,23.40
2022-08-19T18:03:36.860Z,23.10
2022-08-19T18:07:21.473Z,22.90
2022-08-19T18:11:04.475Z,22.80
2022-08-19T18:14:48.403Z,22.70
2022-08-19T18:18:30.836Z,22.60
2022-08-19T18:22:14.413Z,22.60
2022-08-19T18:25:57.261Z,22.50
2022-08-19T18:29:40.253Z,22.40
2022-08-19T18:33:25.513Z,22.40
2022-08-19T18:37:08.245Z,22.30
2022-08-19T18:41:08.363Z,22.10
2022-08-19T18:45:08.560Z,22.00
2022-08-19T18:49:08.910Z,21.80
2022-08-19T18:52:51.287Z,21.50
2022-08-19T18:56:35.742Z,21.40
2022-08-19T19:00:18.672Z,21.20
2022-08-19T19:04:05.499Z,21.10
2022-08-19T19:07:48.382Z,21.10
2022-08-19T19:11:33.789Z,21.10
2022-08-19T19:15:16.514Z,21.10
2022-08-19T19:19:00.061Z,21.10
2022-08-19T19:22:44.311Z,21.20
2022-08-19T19:26:27.128Z,21.10
2022-08-19T19:30:10.409Z,21.10
2022-08-19T19:33:53.805Z,21.10
2022-08-19T19:37:38.383Z,21.10
2022-08-19T19:41:24.569Z,21.00
2022-08-19T19:45:07.853Z,21.00
2022-08-19T19:48:50.600Z,21.00
2022-08-19T19:52:33.636Z,21.00
2022-08-19T19:56:16.924Z,21.00
2022-08-19T20:00:12.833Z,21.00
2022-08-19T20:03:55.738Z,21.10
2022-08-19T20:07:56.623Z,21.00
2022-08-19T20:11:41.919Z,21.10
2022-08-19T20:15:26.153Z,21.10
2022-08-19T20:19:09.357Z,21.10
2022-08-19T20:22:51.944Z,21.10
2022-08-19T20:26:35.115Z,21.10
2022-08-19T20:30:21.852Z,21.00
2022-08-19T20:34:07.354Z,21.00
2022-08-19T20:37:53.875Z,20.90
2022-08-19T20:41:41.547Z,20.90
2022-08-19T20:45:33.613Z,20.80
2022-08-19T20:49:17.869Z,20.80
2022-08-19T20:53:00.796Z,20.70
2022-08-19T20:56:43.320Z,20.60
2022-08-19T21:00:25.685Z,20.50
2022-08-19T21:04:08.476Z,20.50
2022-08-19T21:07:52.678Z,20.40
2022-08-19T21:11:35.442Z,20.30
2022-08-19T21:15:18.463Z,20.30
2022-08-19T21:19:01.321Z,20.30
2022-08-19T21:22:43.795Z,20.20
2022-08-19T21:26:27.768Z,20.20
2022-08-19T21:30:12.048Z,20.20
2022-08-19T21:33:54.920Z,20.20
2022-08-19T21:37:38.731Z,20.10
2022-08-19T21:41:21.434Z,20.20
2022-08-19T21:45:06.231Z,20.20
2022-08-19T21:48:49.068Z,20.10
2022-08-19T21:52:31.944Z,20.10
2022-08-19T21:56:14.445Z,20.10
2022-08-19T21:59:57.191Z,20.00
2022-08-19T22:03:41.648Z,19.90
2022-08-19T22:07:24.359Z,19.80
2022-08-19T22:11:07.180Z,19.70
2022-08-19T22:14:50.541Z,19.60
2022-08-19T22:18:35.281Z,19.50
2022-08-19T22:22:24.018Z,19.40
2022-08-19T22:26:06.678Z,19.40
2022-08-19T22:29:52.591Z,19.30
2022-08-19T22:33:37.309Z,19.30
2022-08-19T22:53:03.757Z,18.70
2022-08-19T22:56:46.820Z,18.70
2022-08-19T23:00:29.889Z,18.70
2022-08-19T23:04:12.496Z,18.70
2022-08-19T23:07:57.195Z,18.70
2022-08-19T23:11:42.396Z,18.70
2022-08-19T23:15:28.652Z,18.70
2022-08-19T23:19:11.821Z,18.70
2022-08-19T23:22:55.657Z,18.70
2022-08-19T23:26:38.542Z,18.70
2022-08-19T23:30:27.747Z,18.60
2022-08-19T23:34:10.505Z,18.60
2022-08-19T23:37:53.504Z,18.60
2022-08-19T23:41:36.353Z,18.60
2022-08-19T23:45:23.787Z,18.50
2022-08-19T23:49:08.533Z,18.50
2022-08-19T23:52:53.375Z,18.50
2022-08-19T23:56:35.908Z,18.50
